Notrees, Texas
Current Conditions -  °F | °C
As of 6:53 PM on Tuesday 25 Nov 2014 (Local Time) from KODO Reporting Station
Clear Clear  
Wind Chill: 43°   Ceiling: Unl
Heat Index: 47°   Visibility: 10mi
Dew Point: 13°   Wind: 9mph
Humidity: 25%   Direction: 200°SSW
Pressure: 30.18"   Gusts: NA
Location:  31.92°N, 102.76°W
Report Text: KODO 260053Z AUTO 20008KT 10SM CLR 08/M11 A3018 RMK AO2 SLP211 T00831106
Loading
Personal Weather Stations






























Interactive Weather Map New forecast layout! Learn more

10-Day Weather Forecast

Advertisements
Track Severe Weather on mobile